sensor_id;sensor_type;location;lat;lon;timestamp;temperature;humidity
25058;DHT22;13057;50.978;11.034;2023-04-15T00:00:06;8.80;99.90
25058;DHT22;13057;50.978;11.034;2023-04-15T00:02:32;8.80;99.90
25058;DHT22;13057;50.978;11.034;2023-04-15T00:04:58;8.80;99.90
25058;DHT22;13057;50.978;11.034;2023-04-15T00:07:24;8.80;99.90
25058;DHT22;13057;50.978;11.034;2023-04-15T00:09:49;8.80;99.90
25058;DHT22;13057;50.978;11.034;2023-04-15T00:12:19;8.80;99.90
25058;DHT22;13057;50.978;11.034;2023-04-15T00:14:46;8.80;99.90
25058;DHT22;13057;50.978;11.034;2023-04-15T00:17:12;8.80;99.90
25058;DHT22;13057;50.978;11.034;2023-04-15T00:19:38;8.80;99.90
25058;DHT22;13057;50.978;11.034;2023-04-15T00:22:05;8.80;99.90
25058;DHT22;13057;50.978;11.034;2023-04-15T00:24:31;8.80;99.90
25058;DHT22;13057;50.978;11.034;2023-04-15T00:26:57;8.80;99.90
25058;DHT22;13057;50.978;11.034;2023-04-15T00:29:23;8.80;99.90
25058;DHT22;13057;50.978;11.034;2023-04-15T00:31:50;8.70;99.90
25058;DHT22;13057;50.978;11.034;2023-04-15T00:34:15;8.70;99.90
25058;DHT22;13057;50.978;11.034;2023-04-15T00:36:42;8.70;99.90
25058;DHT22;13057;50.978;11.034;2023-04-15T00:39:08;8.70;99.90
25058;DHT22;13057;50.978;11.034;2023-04-15T00:41:34;8.70;99.90
25058;DHT22;13057;50.978;11.034;2023-04-15T00:44:04;8.70;99.90
25058;DHT22;13057;50.978;11.034;2023-04-15T00:46:31;8.70;99.90
25058;DHT22;13057;50.978;11.034;2023-04-15T00:48:58;8.70;99.90
25058;DHT22;13057;50.978;11.034;2023-04-15T00:51:24;8.70;99.90
25058;DHT22;13057;50.978;11.034;2023-04-15T00:53:50;8.70;99.90
25058;DHT22;13057;50.978;11.034;2023-04-15T00:56:16;8.60;99.90
25058;DHT22;13057;50.978;11.034;2023-04-15T00:58:44;8.60;99.90
25058;DHT22;13057;50.978;11.034;2023-04-15T01:01:10;8.60;99.90
25058;DHT22;13057;50.978;11.034;2023-04-15T01:03:36;8.60;99.90
25058;DHT22;13057;50.978;11.034;2023-04-15T01:06:02;8.60;99.90
25058;DHT22;13057;50.978;11.034;2023-04-15T01:08:28;8.60;99.90
25058;DHT22;13057;50.978;11.034;2023-04-15T01:10:56;8.60;99.90
25058;DHT22;13057;50.978;11.034;2023-04-15T01:13:23;8.60;99.90
25058;DHT22;13057;50.978;11.034;2023-04-15T01:15:50;8.70;99.90
25058;DHT22;13057;50.978;11.034;2023-04-15T01:18:17;8.60;99.90
25058;DHT22;13057;50.978;11.034;2023-04-15T01:20:43;8.70;99.90
25058;DHT22;13057;50.978;11.034;2023-04-15T01:23:10;8.70;99.90
25058;DHT22;13057;50.978;11.034;2023-04-15T01:25:36;8.60;99.90
25058;DHT22;13057;50.978;11.034;2023-04-15T01:28:03;8.70;99.90
25058;DHT22;13057;50.978;11.034;2023-04-15T01:30:33;8.70;99.90
25058;DHT22;13057;50.978;11.034;2023-04-15T01:32:59;8.80;99.90
25058;DHT22;13057;50.978;11.034;2023-04-15T01:35:25;8.70;99.90
25058;DHT22;13057;50.978;11.034;2023-04-15T01:37:53;8.70;99.90
25058;DHT22;13057;50.978;11.034;2023-04-15T01:40:19;8.80;99.90
25058;DHT22;13057;50.978;11.034;2023-04-15T01:42:45;8.80;99.90
25058;DHT22;13057;50.978;11.034;2023-04-15T01:45:11;8.80;99.90
25058;DHT22;13057;50.978;11.034;2023-04-15T01:47:38;8.80;99.90
25058;DHT22;13057;50.978;11.034;2023-04-15T01:50:05;8.80;99.90
25058;DHT22;13057;50.978;11.034;2023-04-15T01:52:31;8.80;99.90
25058;DHT22;13057;50.978;11.034;2023-04-15T01:54:57;8.80;99.90
25058;DHT22;13057;50.978;11.034;2023-04-15T01:57:23;8.80;99.90
25058;DHT22;13057;50.978;11.034;2023-04-15T01:59:49;8.80;99.90
25058;DHT22;13057;50.978;11.034;2023-04-15T02:02:15;8.70;99.90
25058;DHT22;13057;50.978;11.034;2023-04-15T02:04:41;8.70;99.90
25058;DHT22;13057;50.978;11.034;2023-04-15T02:07:07;8.70;99.90
25058;DHT22;13057;50.978;11.034;2023-04-15T02:09:33;8.70;99.90
25058;DHT22;13057;50.978;11.034;2023-04-15T02:11:59;8.80;99.90
25058;DHT22;13057;50.978;11.034;2023-04-15T02:14:25;8.80;99.90
25058;DHT22;13057;50.978;11.034;2023-04-15T02:16:51;8.70;99.90
25058;DHT22;13057;50.978;11.034;2023-04-15T02:19:17;8.80;99.90
25058;DHT22;13057;50.978;11.034;2023-04-15T02:21:43;8.80;99.90
25058;DHT22;13057;50.978;11.034;2023-04-15T02:24:09;8.80;99.90
25058;DHT22;13057;50.978;11.034;2023-04-15T02:26:36;8.80;99.90
25058;DHT22;13057;50.978;11.034;2023-04-15T02:29:02;8.80;99.90
25058;DHT22;13057;50.978;11.034;2023-04-15T02:31:28;8.80;99.90
25058;DHT22;13057;50.978;11.034;2023-04-15T02:33:54;8.80;99.90
25058;DHT22;13057;50.978;11.034;2023-04-15T02:36:20;8.80;99.90
25058;DHT22;13057;50.978;11.034;2023-04-15T02:38:46;8.70;99.90
25058;DHT22;13057;50.978;11.034;2023-04-15T02:41:12;8.70;99.90
25058;DHT22;13057;50.978;11.034;2023-04-15T02:43:38;8.70;99.90
25058;DHT22;13057;50.978;11.034;2023-04-15T02:46:04;8.70;99.90
25058;DHT22;13057;50.978;11.034;2023-04-15T02:48:30;8.70;99.90
25058;DHT22;13057;50.978;11.034;2023-04-15T02:51:10;8.70;99.90
25058;DHT22;13057;50.978;11.034;2023-04-15T02:53:36;8.70;99.90
25058;DHT22;13057;50.978;11.034;2023-04-15T02:56:02;8.70;99.90
25058;DHT22;13057;50.978;11.034;2023-04-15T02:58:28;8.70;99.90
25058;DHT22;13057;50.978;11.034;2023-04-15T03:00:54;8.70;99.90
25058;DHT22;13057;50.978;11.034;2023-04-15T03:03:19;8.60;99.90
25058;DHT22;13057;50.978;11.034;2023-04-15T03:05:45;8.60;99.90
25058;DHT22;13057;50.978;11.034;2023-04-15T03:08:11;8.60;99.90
25058;DHT22;13057;50.978;11.034;2023-04-15T03:10:39;8.60;99.90
25058;DHT22;13057;50.978;11.034;2023-04-15T03:13:04;8.60;99.90
25058;DHT22;13057;50.978;11.034;2023-04-15T03:15:31;8.60;99.90
25058;DHT22;13057;50.978;11.034;2023-04-15T03:17:58;8.50;99.90
25058;DHT22;13057;50.978;11.034;2023-04-15T03:20:23;8.50;99.90
25058;DHT22;13057;50.978;11.034;2023-04-15T03:22:49;8.50;99.90
25058;DHT22;13057;50.978;11.034;2023-04-15T03:25:15;8.50;99.90
25058;DHT22;13057;50.978;11.034;2023-04-15T03:27:41;8.50;99.90
25058;DHT22;13057;50.978;11.034;2023-04-15T03:30:07;8.40;99.90
25058;DHT22;13057;50.978;11.034;2023-04-15T03:32:33;8.40;99.90
25058;DHT22;13057;50.978;11.034;2023-04-15T03:34:59;8.40;99.90
25058;DHT22;13057;50.978;11.034;2023-04-15T03:37:25;8.40;99.90
25058;DHT22;13057;50.978;11.034;2023-04-15T03:39:51;8.40;99.90
25058;DHT22;13057;50.978;11.034;2023-04-15T03:42:17;8.40;99.90
25058;DHT22;13057;50.978;11.034;2023-04-15T03:44:43;8.40;99.90
25058;DHT22;13057;50.978;11.034;2023-04-15T03:47:09;8.40;99.90
25058;DHT22;13057;50.978;11.034;2023-04-15T03:49:35;8.30;99.90
25058;DHT22;13057;50.978;11.034;2023-04-15T03:52:01;8.30;99.90
25058;DHT22;13057;50.978;11.034;2023-04-15T03:54:27;8.30;99.90
25058;DHT22;13057;50.978;11.034;2023-04-15T03:56:53;8.30;99.90
25058;DHT22;13057;50.978;11.034;2023-04-15T03:59:19;8.20;99.90
25058;DHT22;13057;50.978;11.034;2023-04-15T04:01:45;8.20;99.90
25058;DHT22;13057;50.978;11.034;2023-04-15T04:04:10;8.20;99.90
25058;DHT22;13057;50.978;11.034;2023-04-15T04:06:37;8.10;99.90
25058;DHT22;13057;50.978;11.034;2023-04-15T04:09:02;8.10;99.90
25058;DHT22;13057;50.978;11.034;2023-04-15T04:11:28;8.10;99.90
25058;DHT22;13057;50.978;11.034;2023-04-15T04:13:54;8.10;99.90
25058;DHT22;13057;50.978;11.034;2023-04-15T04:16:20;8.10;99.90
25058;DHT22;13057;50.978;11.034;2023-04-15T04:18:46;8.10;99.90
25058;DHT22;13057;50.978;11.034;2023-04-15T04:21:12;8.00;99.90
25058;DHT22;13057;50.978;11.034;2023-04-15T04:23:37;8.00;99.90
25058;DHT22;13057;50.978;11.034;2023-04-15T04:26:04;7.90;99.90
25058;DHT22;13057;50.978;11.034;2023-04-15T04:28:30;7.90;99.90
25058;DHT22;13057;50.978;11.034;2023-04-15T04:30:56;7.90;99.90
25058;DHT22;13057;50.978;11.034;2023-04-15T04:33:22;7.90;99.90
25058;DHT22;13057;50.978;11.034;2023-04-15T04:35:48;7.90;99.90
25058;DHT22;13057;50.978;11.034;2023-04-15T04:38:14;7.90;99.90
25058;DHT22;13057;50.978;11.034;2023-04-15T04:40:40;7.90;99.90
25058;DHT22;13057;50.978;11.034;2023-04-15T04:43:06;7.80;99.90
25058;DHT22;13057;50.978;11.034;2023-04-15T04:45:32;7.80;99.90
25058;DHT22;13057;50.978;11.034;2023-04-15T04:47:58;7.80;99.90
25058;DHT22;13057;50.978;11.034;2023-04-15T04:50:23;7.80;99.90
25058;DHT22;13057;50.978;11.034;2023-04-15T04:52:50;7.80;99.90
25058;DHT22;13057;50.978;11.034;2023-04-15T04:55:16;7.80;99.90
25058;DHT22;13057;50.978;11.034;2023-04-15T04:57:42;7.80;99.90
25058;DHT22;13057;50.978;11.034;2023-04-15T05:00:09;7.70;99.90
25058;DHT22;13057;50.978;11.034;2023-04-15T05:02:35;7.80;99.90
25058;DHT22;13057;50.978;11.034;2023-04-15T05:05:01;7.80;99.90
25058;DHT22;13057;50.978;11.034;2023-04-15T05:07:27;7.80;99.90
25058;DHT22;13057;50.978;11.034;2023-04-15T05:09:53;7.90;99.90
25058;DHT22;13057;50.978;11.034;2023-04-15T05:12:18;7.80;99.90
25058;DHT22;13057;50.978;11.034;2023-04-15T05:14:44;7.70;99.90
25058;DHT22;13057;50.978;11.034;2023-04-15T05:17:11;7.80;99.90
25058;DHT22;13057;50.978;11.034;2023-04-15T05:19:37;7.80;99.90
25058;DHT22;13057;50.978;11.034;2023-04-15T05:22:12;7.80;99.90
25058;DHT22;13057;50.978;11.034;2023-04-15T05:24:37;7.80;99.90
25058;DHT22;13057;50.978;11.034;2023-04-15T05:27:03;7.80;99.90
25058;DHT22;13057;50.978;11.034;2023-04-15T05:29:29;7.70;99.90
25058;DHT22;13057;50.978;11.034;2023-04-15T05:31:55;7.80;99.90
25058;DHT22;13057;50.978;11.034;2023-04-15T05:34:21;7.80;99.90
25058;DHT22;13057;50.978;11.034;2023-04-15T05:36:47;7.80;99.90
25058;DHT22;13057;50.978;11.034;2023-04-15T05:39:13;7.80;99.90
25058;DHT22;13057;50.978;11.034;2023-04-15T05:41:39;7.70;99.90
25058;DHT22;13057;50.978;11.034;2023-04-15T05:44:05;7.70;99.90
25058;DHT22;13057;50.978;11.034;2023-04-15T05:46:31;7.70;99.90
25058;DHT22;13057;50.978;11.034;2023-04-15T05:48:57;7.80;99.90
25058;DHT22;13057;50.978;11.034;2023-04-15T05:51:23;7.80;99.90
25058;DHT22;13057;50.978;11.034;2023-04-15T05:53:48;7.80;99.90
25058;DHT22;13057;50.978;11.034;2023-04-15T05:56:14;7.70;99.90
25058;DHT22;13057;50.978;11.034;2023-04-15T05:58:40;7.70;99.90
25058;DHT22;13057;50.978;11.034;2023-04-15T06:01:06;7.70;99.90
25058;DHT22;13057;50.978;11.034;2023-04-15T06:03:32;7.70;99.90
25058;DHT22;13057;50.978;11.034;2023-04-15T06:05:58;7.80;99.90
25058;DHT22;13057;50.978;11.034;2023-04-15T06:08:25;7.80;99.90
25058;DHT22;13057;50.978;11.034;2023-04-15T06:10:52;7.70;99.90
25058;DHT22;13057;50.978;11.034;2023-04-15T06:13:18;7.70;99.90
25058;DHT22;13057;50.978;11.034;2023-04-15T06:15:43;7.70;99.90
25058;DHT22;13057;50.978;11.034;2023-04-15T06:18:09;7.70;99.90
25058;DHT22;13057;50.978;11.034;2023-04-15T06:20:36;7.70;99.90
25058;DHT22;13057;50.978;11.034;2023-04-15T06:23:02;7.70;99.90
25058;DHT22;13057;50.978;11.034;2023-04-15T06:25:27;7.80;99.90
25058;DHT22;13057;50.978;11.034;2023-04-15T06:27:53;7.80;99.90
25058;DHT22;13057;50.978;11.034;2023-04-15T06:30:19;7.70;99.90
25058;DHT22;13057;50.978;11.034;2023-04-15T06:32:45;7.80;99.90
25058;DHT22;13057;50.978;11.034;2023-04-15T06:35:11;7.80;99.90
25058;DHT22;13057;50.978;11.034;2023-04-15T06:37:37;7.80;99.90
25058;DHT22;13057;50.978;11.034;2023-04-15T06:40:03;7.80;99.90
25058;DHT22;13057;50.978;11.034;2023-04-15T06:42:30;7.80;99.90
25058;DHT22;13057;50.978;11.034;2023-04-15T06:44:56;7.80;99.90
25058;DHT22;13057;50.978;11.034;2023-04-15T06:47:22;7.80;99.90
25058;DHT22;13057;50.978;11.034;2023-04-15T06:49:47;7.90;99.90
25058;DHT22;13057;50.978;11.034;2023-04-15T06:52:13;7.90;99.90
25058;DHT22;13057;50.978;11.034;2023-04-15T06:54:41;7.90;99.90
25058;DHT22;13057;50.978;11.034;2023-04-15T06:57:07;7.90;99.90
25058;DHT22;13057;50.978;11.034;2023-04-15T06:59:34;7.90;99.90
25058;DHT22;13057;50.978;11.034;2023-04-15T07:02:00;7.90;99.90
25058;DHT22;13057;50.978;11.034;2023-04-15T07:04:29;7.90;99.90
25058;DHT22;13057;50.978;11.034;2023-04-15T07:06:55;7.90;99.90
25058;DHT22;13057;50.978;11.034;2023-04-15T07:09:23;7.90;99.90
25058;DHT22;13057;50.978;11.034;2023-04-15T07:11:49;7.90;99.90
25058;DHT22;13057;50.978;11.034;2023-04-15T07:14:15;7.90;99.90
25058;DHT22;13057;50.978;11.034;2023-04-15T07:16:42;7.90;99.90
25058;DHT22;13057;50.978;11.034;2023-04-15T07:19:07;7.90;99.90
25058;DHT22;13057;50.978;11.034;2023-04-15T07:21:33;7.90;99.90
25058;DHT22;13057;50.978;11.034;2023-04-15T07:23:59;7.90;99.90
25058;DHT22;13057;50.978;11.034;2023-04-15T07:26:25;7.90;99.90
25058;DHT22;13057;50.978;11.034;2023-04-15T07:28:51;7.90;99.90
25058;DHT22;13057;50.978;11.034;2023-04-15T07:31:16;7.90;99.90
25058;DHT22;13057;50.978;11.034;2023-04-15T07:33:42;7.90;99.90
25058;DHT22;13057;50.978;11.034;2023-04-15T07:36:09;7.90;99.90
25058;DHT22;13057;50.978;11.034;2023-04-15T07:38:35;7.90;99.90
25058;DHT22;13057;50.978;11.034;2023-04-15T07:41:01;8.00;99.90
25058;DHT22;13057;50.978;11.034;2023-04-15T07:43:27;8.00;99.90
25058;DHT22;13057;50.978;11.034;2023-04-15T07:45:54;8.00;99.90
25058;DHT22;13057;50.978;11.034;2023-04-15T07:48:19;8.00;99.90
25058;DHT22;13057;50.978;11.034;2023-04-15T07:50:45;7.90;99.90
25058;DHT22;13057;50.978;11.034;2023-04-15T07:53:11;8.00;99.90
25058;DHT22;13057;50.978;11.034;2023-04-15T07:55:38;8.10;99.90
25058;DHT22;13057;50.978;11.034;2023-04-15T07:58:04;8.10;99.90
25058;DHT22;13057;50.978;11.034;2023-04-15T08:00:29;8.10;99.90
25058;DHT22;13057;50.978;11.034;2023-04-15T08:02:56;8.10;99.90
25058;DHT22;13057;50.978;11.034;2023-04-15T08:05:24;8.00;99.90
25058;DHT22;13057;50.978;11.034;2023-04-15T08:07:50;8.00;99.90
25058;DHT22;13057;50.978;11.034;2023-04-15T08:10:19;8.00;99.90
25058;DHT22;13057;50.978;11.034;2023-04-15T08:12:45;8.00;99.90
25058;DHT22;13057;50.978;11.034;2023-04-15T08:15:14;8.10;99.90
25058;DHT22;13057;50.978;11.034;2023-04-15T08:17:40;8.10;99.90
25058;DHT22;13057;50.978;11.034;2023-04-15T08:20:06;8.10;99.90
25058;DHT22;13057;50.978;11.034;2023-04-15T08:22:32;8.10;99.90
25058;DHT22;13057;50.978;11.034;2023-04-15T08:24:59;8.10;99.90
25058;DHT22;13057;50.978;11.034;2023-04-15T08:27:24;8.20;99.90
25058;DHT22;13057;50.978;11.034;2023-04-15T08:29:50;8.20;99.90
25058;DHT22;13057;50.978;11.034;2023-04-15T08:32:16;8.30;99.90
25058;DHT22;13057;50.978;11.034;2023-04-15T08:34:43;8.20;99.90
25058;DHT22;13057;50.978;11.034;2023-04-15T08:37:09;8.20;99.90
25058;DHT22;13057;50.978;11.034;2023-04-15T08:39:36;8.30;99.90
25058;DHT22;13057;50.978;11.034;2023-04-15T08:42:04;8.20;99.90
25058;DHT22;13057;50.978;11.034;2023-04-15T08:44:35;8.30;99.90
25058;DHT22;13057;50.978;11.034;2023-04-15T08:47:03;8.40;99.90
25058;DHT22;13057;50.978;11.034;2023-04-15T08:49:32;8.40;99.90
25058;DHT22;13057;50.978;11.034;2023-04-15T08:52:00;8.50;99.90
25058;DHT22;13057;50.978;11.034;2023-04-15T08:54:27;8.50;99.90
25058;DHT22;13057;50.978;11.034;2023-04-15T08:56:53;8.60;99.90
25058;DHT22;13057;50.978;11.034;2023-04-15T08:59:20;8.60;99.90
25058;DHT22;13057;50.978;11.034;2023-04-15T09:01:48;8.60;99.90
25058;DHT22;13057;50.978;11.034;2023-04-15T09:04:15;8.60;99.90
25058;DHT22;13057;50.978;11.034;2023-04-15T09:06:41;8.60;99.90
25058;DHT22;13057;50.978;11.034;2023-04-15T09:09:07;8.60;99.90
25058;DHT22;13057;50.978;11.034;2023-04-15T09:11:33;8.60;99.90
25058;DHT22;13057;50.978;11.034;2023-04-15T09:14:00;8.60;99.90
25058;DHT22;13057;50.978;11.034;2023-04-15T09:16:26;8.60;99.90
25058;DHT22;13057;50.978;11.034;2023-04-15T09:18:53;8.60;99.90
25058;DHT22;13057;50.978;11.034;2023-04-15T09:21:19;8.60;99.90
25058;DHT22;13057;50.978;11.034;2023-04-15T09:23:56;8.60;99.90
25058;DHT22;13057;50.978;11.034;2023-04-15T09:26:32;8.60;99.90
25058;DHT22;13057;50.978;11.034;2023-04-15T09:29:05;8.70;99.90
25058;DHT22;13057;50.978;11.034;2023-04-15T09:31:32;8.60;99.90
25058;DHT22;13057;50.978;11.034;2023-04-15T09:33:58;8.70;99.90
25058;DHT22;13057;50.978;11.034;2023-04-15T09:36:24;8.60;99.90
25058;DHT22;13057;50.978;11.034;2023-04-15T09:38:55;8.60;99.90
25058;DHT22;13057;50.978;11.034;2023-04-15T09:41:22;8.60;99.90
25058;DHT22;13057;50.978;11.034;2023-04-15T09:43:48;8.60;99.90
25058;DHT22;13057;50.978;11.034;2023-04-15T09:46:14;8.60;99.90
25058;DHT22;13057;50.978;11.034;2023-04-15T09:48:40;8.70;99.90
25058;DHT22;13057;50.978;11.034;2023-04-15T09:51:06;8.70;99.90
25058;DHT22;13057;50.978;11.034;2023-04-15T09:53:34;8.70;99.90
25058;DHT22;13057;50.978;11.034;2023-04-15T09:56:01;8.80;99.90
25058;DHT22;13057;50.978;11.034;2023-04-15T09:58:31;8.80;99.90
25058;DHT22;13057;50.978;11.034;2023-04-15T10:00:59;8.80;99.90
25058;DHT22;13057;50.978;11.034;2023-04-15T10:03:28;8.80;99.90
25058;DHT22;13057;50.978;11.034;2023-04-15T10:05:56;8.80;99.90
25058;DHT22;13057;50.978;11.034;2023-04-15T10:08:25;8.80;99.90
25058;DHT22;13057;50.978;11.034;2023-04-15T10:10:52;8.80;99.90
25058;DHT22;13057;50.978;11.034;2023-04-15T10:13:20;8.80;99.90
25058;DHT22;13057;50.978;11.034;2023-04-15T10:15:51;8.80;99.90
25058;DHT22;13057;50.978;11.034;2023-04-15T10:18:24;8.90;99.90
25058;DHT22;13057;50.978;11.034;2023-04-15T10:20:51;8.90;99.90
25058;DHT22;13057;50.978;11.034;2023-04-15T10:23:18;8.90;99.90
25058;DHT22;13057;50.978;11.034;2023-04-15T10:25:46;8.90;99.90
25058;DHT22;13057;50.978;11.034;2023-04-15T10:28:14;8.90;99.90
25058;DHT22;13057;50.978;11.034;2023-04-15T10:30:42;8.80;99.90
25058;DHT22;13057;50.978;11.034;2023-04-15T10:33:08;8.90;99.90
25058;DHT22;13057;50.978;11.034;2023-04-15T10:35:36;8.90;99.90
25058;DHT22;13057;50.978;11.034;2023-04-15T10:41:11;8.90;99.90
25058;DHT22;13057;50.978;11.034;2023-04-15T10:43:37;8.90;99.90
25058;DHT22;13057;50.978;11.034;2023-04-15T10:46:05;8.90;99.90
25058;DHT22;13057;50.978;11.034;2023-04-15T10:48:31;9.00;99.90
25058;DHT22;13057;50.978;11.034;2023-04-15T10:50:59;9.00;99.90
25058;DHT22;13057;50.978;11.034;2023-04-15T10:53:28;9.10;99.90
25058;DHT22;13057;50.978;11.034;2023-04-15T10:55:56;9.10;99.90
25058;DHT22;13057;50.978;11.034;2023-04-15T10:58:23;9.10;99.90
25058;DHT22;13057;50.978;11.034;2023-04-15T11:00:51;9.20;99.90
25058;DHT22;13057;50.978;11.034;2023-04-15T11:03:35;9.20;99.90
25058;DHT22;13057;50.978;11.034;2023-04-15T11:06:02;9.20;99.90
25058;DHT22;13057;50.978;11.034;2023-04-15T11:11:18;9.20;99.90
25058;DHT22;13057;50.978;11.034;2023-04-15T11:13:49;9.30;99.90
25058;DHT22;13057;50.978;11.034;2023-04-15T11:16:15;9.30;99.90
25058;DHT22;13057;50.978;11.034;2023-04-15T11:18:41;9.20;99.90
25058;DHT22;13057;50.978;11.034;2023-04-15T11:21:13;9.20;99.90
25058;DHT22;13057;50.978;11.034;2023-04-15T11:23:41;9.20;99.90
25058;DHT22;13057;50.978;11.034;2023-04-15T11:26:11;9.20;99.90
25058;DHT22;13057;50.978;11.034;2023-04-15T11:28:39;9.30;99.90
25058;DHT22;13057;50.978;11.034;2023-04-15T11:31:08;9.20;99.90
25058;DHT22;13057;50.978;11.034;2023-04-15T11:33:36;9.20;99.90
25058;DHT22;13057;50.978;11.034;2023-04-15T11:36:02;9.20;99.90
25058;DHT22;13057;50.978;11.034;2023-04-15T11:38:29;9.30;99.90
25058;DHT22;13057;50.978;11.034;2023-04-15T11:40:56;9.20;99.90
25058;DHT22;13057;50.978;11.034;2023-04-15T11:43:22;9.20;99.90
25058;DHT22;13057;50.978;11.034;2023-04-15T11:45:55;9.20;99.90
25058;DHT22;13057;50.978;11.034;2023-04-15T11:48:26;9.20;99.90
25058;DHT22;13057;50.978;11.034;2023-04-15T11:50:54;9.30;99.90
25058;DHT22;13057;50.978;11.034;2023-04-15T11:53:21;9.20;99.90
25058;DHT22;13057;50.978;11.034;2023-04-15T11:55:49;9.20;99.90
25058;DHT22;13057;50.978;11.034;2023-04-15T11:58:20;9.20;99.90
25058;DHT22;13057;50.978;11.034;2023-04-15T12:00:55;9.20;99.90
25058;DHT22;13057;50.978;11.034;2023-04-15T12:03:24;9.30;99.90
25058;DHT22;13057;50.978;11.034;2023-04-15T12:06:05;9.30;99.90
25058;DHT22;13057;50.978;11.034;2023-04-15T12:08:57;9.30;99.90
25058;DHT22;13057;50.978;11.034;2023-04-15T12:11:30;9.30;99.90
25058;DHT22;13057;50.978;11.034;2023-04-15T12:14:02;9.30;99.90
25058;DHT22;13057;50.978;11.034;2023-04-15T12:16:29;9.30;99.90
25058;DHT22;13057;50.978;11.034;2023-04-15T12:18:58;9.30;99.90
25058;DHT22;13057;50.978;11.034;2023-04-15T12:21:26;9.30;99.90
25058;DHT22;13057;50.978;11.034;2023-04-15T12:23:55;9.30;99.90
25058;DHT22;13057;50.978;11.034;2023-04-15T12:26:33;9.30;99.90
25058;DHT22;13057;50.978;11.034;2023-04-15T12:29:05;9.30;99.90
25058;DHT22;13057;50.978;11.034;2023-04-15T12:31:33;9.40;99.90
25058;DHT22;13057;50.978;11.034;2023-04-15T12:33:59;9.40;99.90
25058;DHT22;13057;50.978;11.034;2023-04-15T12:36:26;9.30;99.90
25058;DHT22;13057;50.978;11.034;2023-04-15T12:38:53;9.40;99.90
25058;DHT22;13057;50.978;11.034;2023-04-15T12:41:19;9.40;99.90
25058;DHT22;13057;50.978;11.034;2023-04-15T12:43:47;9.50;99.90
25058;DHT22;13057;50.978;11.034;2023-04-15T12:46:12;9.40;99.90
25058;DHT22;13057;50.978;11.034;2023-04-15T12:48:39;9.40;99.90
25058;DHT22;13057;50.978;11.034;2023-04-15T12:51:06;9.40;99.90
25058;DHT22;13057;50.978;11.034;2023-04-15T12:53:32;9.40;99.90
25058;DHT22;13057;50.978;11.034;2023-04-15T12:55:57;9.50;99.90
25058;DHT22;13057;50.978;11.034;2023-04-15T12:58:23;9.50;99.90
25058;DHT22;13057;50.978;11.034;2023-04-15T13:00:49;9.50;99.90
25058;DHT22;13057;50.978;11.034;2023-04-15T13:03:15;9.60;99.90
25058;DHT22;13057;50.978;11.034;2023-04-15T13:05:41;9.50;99.90
25058;DHT22;13057;50.978;11.034;2023-04-15T13:08:07;9.50;99.90
25058;DHT22;13057;50.978;11.034;2023-04-15T13:10:34;9.60;99.90
25058;DHT22;13057;50.978;11.034;2023-04-15T13:13:02;9.50;99.90
25058;DHT22;13057;50.978;11.034;2023-04-15T13:15:28;9.50;99.90
25058;DHT22;13057;50.978;11.034;2023-04-15T13:17:54;9.50;99.90
25058;DHT22;13057;50.978;11.034;2023-04-15T13:20:20;9.50;99.90
25058;DHT22;13057;50.978;11.034;2023-04-15T13:22:46;9.50;99.90
25058;DHT22;13057;50.978;11.034;2023-04-15T13:25:12;9.50;99.90
25058;DHT22;13057;50.978;11.034;2023-04-15T13:27:38;9.50;99.90
25058;DHT22;13057;50.978;11.034;2023-04-15T13:30:05;9.50;99.90
25058;DHT22;13057;50.978;11.034;2023-04-15T13:32:31;9.50;99.90
25058;DHT22;13057;50.978;11.034;2023-04-15T13:34:56;9.50;99.90
25058;DHT22;13057;50.978;11.034;2023-04-15T13:37:27;9.60;99.90
25058;DHT22;13057;50.978;11.034;2023-04-15T13:39:53;9.60;99.90
25058;DHT22;13057;50.978;11.034;2023-04-15T13:42:20;9.60;99.90
25058;DHT22;13057;50.978;11.034;2023-04-15T13:44:46;9.60;99.90
25058;DHT22;13057;50.978;11.034;2023-04-15T13:47:12;9.60;99.90
25058;DHT22;13057;50.978;11.034;2023-04-15T13:49:43;9.60;99.90
25058;DHT22;13057;50.978;11.034;2023-04-15T13:52:10;9.60;99.90
25058;DHT22;13057;50.978;11.034;2023-04-15T13:54:36;9.70;99.90
25058;DHT22;13057;50.978;11.034;2023-04-15T13:57:02;9.70;99.90
25058;DHT22;13057;50.978;11.034;2023-04-15T13:59:28;9.70;99.90
25058;DHT22;13057;50.978;11.034;2023-04-15T14:01:54;9.70;99.90
25058;DHT22;13057;50.978;11.034;2023-04-15T14:04:19;9.70;99.90
25058;DHT22;13057;50.978;11.034;2023-04-15T14:06:45;9.70;99.90
25058;DHT22;13057;50.978;11.034;2023-04-15T14:09:11;9.70;99.90
25058;DHT22;13057;50.978;11.034;2023-04-15T14:11:38;9.60;99.90
25058;DHT22;13057;50.978;11.034;2023-04-15T14:14:04;9.60;99.90
25058;DHT22;13057;50.978;11.034;2023-04-15T14:16:32;9.60;99.90
25058;DHT22;13057;50.978;11.034;2023-04-15T14:18:58;9.60;99.90
25058;DHT22;13057;50.978;11.034;2023-04-15T14:21:24;9.60;99.90
25058;DHT22;13057;50.978;11.034;2023-04-15T14:23:52;9.60;99.90
25058;DHT22;13057;50.978;11.034;2023-04-15T14:26:19;9.70;99.90
25058;DHT22;13057;50.978;11.034;2023-04-15T14:28:47;9.60;99.90
25058;DHT22;13057;50.978;11.034;2023-04-15T14:31:13;9.70;99.90
25058;DHT22;13057;50.978;11.034;2023-04-15T14:33:39;9.70;99.90
25058;DHT22;13057;50.978;11.034;2023-04-15T14:36:08;9.70;99.90
25058;DHT22;13057;50.978;11.034;2023-04-15T14:38:35;9.70;99.90
25058;DHT22;13057;50.978;11.034;2023-04-15T14:41:05;9.70;99.90
25058;DHT22;13057;50.978;11.034;2023-04-15T14:43:31;9.70;99.90
25058;DHT22;13057;50.978;11.034;2023-04-15T14:45:58;9.70;99.90
25058;DHT22;13057;50.978;11.034;2023-04-15T14:48:23;9.70;99.90
25058;DHT22;13057;50.978;11.034;2023-04-15T14:50:50;9.70;99.90
25058;DHT22;13057;50.978;11.034;2023-04-15T14:53:16;9.70;99.90
25058;DHT22;13057;50.978;11.034;2023-04-15T14:55:41;9.70;99.90
25058;DHT22;13057;50.978;11.034;2023-04-15T14:58:08;9.70;99.90
25058;DHT22;13057;50.978;11.034;2023-04-15T15:00:35;9.70;99.90
25058;DHT22;13057;50.978;11.034;2023-04-15T15:03:03;9.60;99.90
25058;DHT22;13057;50.978;11.034;2023-04-15T15:05:37;9.70;99.90
25058;DHT22;13057;50.978;11.034;2023-04-15T15:08:05;9.60;99.90
25058;DHT22;13057;50.978;11.034;2023-04-15T15:10:30;9.70;99.90
25058;DHT22;13057;50.978;11.034;2023-04-15T15:12:56;9.70;99.90
25058;DHT22;13057;50.978;11.034;2023-04-15T15:15:22;9.70;99.90
25058;DHT22;13057;50.978;11.034;2023-04-15T15:17:49;9.80;99.90
25058;DHT22;13057;50.978;11.034;2023-04-15T15:20:16;9.80;99.90
25058;DHT22;13057;50.978;11.034;2023-04-15T15:22:43;9.80;99.90
25058;DHT22;13057;50.978;11.034;2023-04-15T15:25:10;9.80;99.90
25058;DHT22;13057;50.978;11.034;2023-04-15T15:27:35;9.80;99.90
25058;DHT22;13057;50.978;11.034;2023-04-15T15:30:02;9.80;99.90
25058;DHT22;13057;50.978;11.034;2023-04-15T15:32:28;9.80;99.90